sensor_id;sensor_type;location;lat;lon;timestamp;P1;durP1;ratioP1;P2;durP2;ratioP2
11486;SDS011;10510;47.942;9.442;2023-03-23T00:00:24;6.95;;;3.22;;
11486;SDS011;10510;47.942;9.442;2023-03-23T00:02:28;5.22;;;3.30;;
11486;SDS011;10510;47.942;9.442;2023-03-23T00:04:35;7.53;;;3.25;;
11486;SDS011;10510;47.942;9.442;2023-03-23T00:06:35;6.25;;;3.33;;
11486;SDS011;10510;47.942;9.442;2023-03-23T00:08:37;6.65;;;3.25;;
11486;SDS011;10510;47.942;9.442;2023-03-23T00:10:47;6.43;;;3.42;;
11486;SDS011;10510;47.942;9.442;2023-03-23T00:12:56;8.55;;;4.07;;
11486;SDS011;10510;47.942;9.442;2023-03-23T00:14:57;7.95;;;3.40;;
11486;SDS011;10510;47.942;9.442;2023-03-23T00:16:58;9.45;;;3.95;;
11486;SDS011;10510;47.942;9.442;2023-03-23T00:19:00;10.68;;;3.65;;
11486;SDS011;10510;47.942;9.442;2023-03-23T00:21:02;7.03;;;4.13;;
11486;SDS011;10510;47.942;9.442;2023-03-23T00:23:03;6.97;;;3.45;;
11486;SDS011;10510;47.942;9.442;2023-03-23T00:25:04;5.15;;;3.42;;
11486;SDS011;10510;47.942;9.442;2023-03-23T00:27:05;9.57;;;3.17;;
11486;SDS011;10510;47.942;9.442;2023-03-23T00:29:11;7.63;;;3.58;;
11486;SDS011;10510;47.942;9.442;2023-03-23T00:31:13;7.60;;;3.63;;
11486;SDS011;10510;47.942;9.442;2023-03-23T00:33:13;5.68;;;2.92;;
11486;SDS011;10510;47.942;9.442;2023-03-23T00:35:16;8.80;;;3.65;;
11486;SDS011;10510;47.942;9.442;2023-03-23T00:37:17;8.88;;;3.30;;
11486;SDS011;10510;47.942;9.442;2023-03-23T00:39:17;7.50;;;3.28;;
11486;SDS011;10510;47.942;9.442;2023-03-23T00:41:18;6.88;;;3.60;;
11486;SDS011;10510;47.942;9.442;2023-03-23T00:43:18;9.70;;;3.60;;
11486;SDS011;10510;47.942;9.442;2023-03-23T00:45:19;6.65;;;3.83;;
11486;SDS011;10510;47.942;9.442;2023-03-23T00:47:19;5.18;;;2.85;;
11486;SDS011;10510;47.942;9.442;2023-03-23T00:49:20;6.28;;;3.30;;
11486;SDS011;10510;47.942;9.442;2023-03-23T00:51:27;7.75;;;3.08;;
11486;SDS011;10510;47.942;9.442;2023-03-23T00:53:27;5.72;;;2.80;;
11486;SDS011;10510;47.942;9.442;2023-03-23T00:55:27;8.30;;;3.65;;
11486;SDS011;10510;47.942;9.442;2023-03-23T00:57:27;4.95;;;3.25;;
11486;SDS011;10510;47.942;9.442;2023-03-23T00:59:28;9.23;;;4.10;;
11486;SDS011;10510;47.942;9.442;2023-03-23T01:01:28;9.10;;;3.80;;
11486;SDS011;10510;47.942;9.442;2023-03-23T01:03:29;7.18;;;3.03;;
11486;SDS011;10510;47.942;9.442;2023-03-23T01:05:29;7.53;;;3.78;;
11486;SDS011;10510;47.942;9.442;2023-03-23T01:07:31;6.13;;;3.22;;
11486;SDS011;10510;47.942;9.442;2023-03-23T01:09:32;7.78;;;3.15;;
11486;SDS011;10510;47.942;9.442;2023-03-23T01:11:32;7.53;;;3.58;;
11486;SDS011;10510;47.942;9.442;2023-03-23T01:13:33;7.90;;;3.42;;
11486;SDS011;10510;47.942;9.442;2023-03-23T01:15:33;7.88;;;3.63;;
11486;SDS011;10510;47.942;9.442;2023-03-23T01:17:35;9.35;;;3.72;;
11486;SDS011;10510;47.942;9.442;2023-03-23T01:19:35;6.70;;;3.33;;
11486;SDS011;10510;47.942;9.442;2023-03-23T01:21:37;7.68;;;3.53;;
11486;SDS011;10510;47.942;9.442;2023-03-23T01:23:38;7.95;;;3.60;;
11486;SDS011;10510;47.942;9.442;2023-03-23T01:25:39;7.82;;;4.00;;
11486;SDS011;10510;47.942;9.442;2023-03-23T01:27:39;5.68;;;3.35;;
11486;SDS011;10510;47.942;9.442;2023-03-23T01:29:40;8.15;;;3.55;;
11486;SDS011;10510;47.942;9.442;2023-03-23T01:31:40;5.32;;;3.30;;
11486;SDS011;10510;47.942;9.442;2023-03-23T01:33:42;5.43;;;3.10;;
11486;SDS011;10510;47.942;9.442;2023-03-23T01:35:43;5.43;;;3.08;;
11486;SDS011;10510;47.942;9.442;2023-03-23T01:37:43;6.32;;;2.72;;
11486;SDS011;10510;47.942;9.442;2023-03-23T01:39:43;4.30;;;2.85;;
11486;SDS011;10510;47.942;9.442;2023-03-23T01:41:44;4.43;;;2.78;;
11486;SDS011;10510;47.942;9.442;2023-03-23T01:43:54;5.65;;;3.30;;
11486;SDS011;10510;47.942;9.442;2023-03-23T01:46:01;3.88;;;2.50;;
11486;SDS011;10510;47.942;9.442;2023-03-23T01:48:03;5.22;;;3.17;;
11486;SDS011;10510;47.942;9.442;2023-03-23T01:50:07;6.10;;;3.40;;
11486;SDS011;10510;47.942;9.442;2023-03-23T01:52:10;4.63;;;2.92;;
11486;SDS011;10510;47.942;9.442;2023-03-23T01:54:17;6.28;;;3.33;;
11486;SDS011;10510;47.942;9.442;2023-03-23T01:56:22;5.93;;;3.35;;
11486;SDS011;10510;47.942;9.442;2023-03-23T01:58:27;5.30;;;3.15;;
11486;SDS011;10510;47.942;9.442;2023-03-23T02:00:30;5.03;;;3.22;;
11486;SDS011;10510;47.942;9.442;2023-03-23T02:02:31;6.80;;;3.53;;
11486;SDS011;10510;47.942;9.442;2023-03-23T02:04:35;6.30;;;2.95;;
11486;SDS011;10510;47.942;9.442;2023-03-23T02:06:35;8.05;;;3.15;;
11486;SDS011;10510;47.942;9.442;2023-03-23T02:08:35;4.97;;;3.30;;
11486;SDS011;10510;47.942;9.442;2023-03-23T02:10:38;7.43;;;3.22;;
11486;SDS011;10510;47.942;9.442;2023-03-23T02:12:38;4.03;;;2.72;;
11486;SDS011;10510;47.942;9.442;2023-03-23T02:14:38;5.55;;;2.47;;
11486;SDS011;10510;47.942;9.442;2023-03-23T02:19:43;5.15;;;3.00;;
11486;SDS011;10510;47.942;9.442;2023-03-23T02:26:01;5.45;;;3.22;;
11486;SDS011;10510;47.942;9.442;2023-03-23T02:28:15;5.30;;;3.03;;
11486;SDS011;10510;47.942;9.442;2023-03-23T02:35:10;8.07;;;3.17;;
11486;SDS011;10510;47.942;9.442;2023-03-23T02:37:19;9.27;;;2.88;;
11486;SDS011;10510;47.942;9.442;2023-03-23T02:39:25;4.90;;;3.13;;
11486;SDS011;10510;47.942;9.442;2023-03-23T02:41:32;5.70;;;2.92;;
11486;SDS011;10510;47.942;9.442;2023-03-23T02:43:40;5.30;;;3.05;;
11486;SDS011;10510;47.942;9.442;2023-03-23T02:45:44;3.60;;;2.30;;
11486;SDS011;10510;47.942;9.442;2023-03-23T02:47:45;5.85;;;2.80;;
11486;SDS011;10510;47.942;9.442;2023-03-23T02:49:48;4.57;;;2.40;;
11486;SDS011;10510;47.942;9.442;2023-03-23T02:51:52;5.15;;;2.97;;
11486;SDS011;10510;47.942;9.442;2023-03-23T02:53:54;6.70;;;3.22;;
11486;SDS011;10510;47.942;9.442;2023-03-23T02:55:56;6.82;;;3.95;;
11486;SDS011;10510;47.942;9.442;2023-03-23T02:57:57;5.05;;;2.63;;
11486;SDS011;10510;47.942;9.442;2023-03-23T02:59:59;5.25;;;2.78;;
11486;SDS011;10510;47.942;9.442;2023-03-23T03:02:01;5.57;;;2.90;;
11486;SDS011;10510;47.942;9.442;2023-03-23T03:04:10;5.70;;;2.55;;
11486;SDS011;10510;47.942;9.442;2023-03-23T03:06:25;5.28;;;2.70;;
11486;SDS011;10510;47.942;9.442;2023-03-23T03:11:18;7.80;;;3.05;;
11486;SDS011;10510;47.942;9.442;2023-03-23T03:18:34;6.57;;;3.40;;
11486;SDS011;10510;47.942;9.442;2023-03-23T03:20:43;6.72;;;3.78;;
11486;SDS011;10510;47.942;9.442;2023-03-23T03:22:47;6.03;;;3.30;;
11486;SDS011;10510;47.942;9.442;2023-03-23T03:24:47;7.82;;;3.50;;
11486;SDS011;10510;47.942;9.442;2023-03-23T03:26:50;5.32;;;2.97;;
11486;SDS011;10510;47.942;9.442;2023-03-23T03:28:54;6.13;;;3.00;;
11486;SDS011;10510;47.942;9.442;2023-03-23T03:30:56;8.05;;;3.90;;
11486;SDS011;10510;47.942;9.442;2023-03-23T03:33:00;6.57;;;2.90;;
11486;SDS011;10510;47.942;9.442;2023-03-23T03:35:03;3.83;;;1.85;;
11486;SDS011;10510;47.942;9.442;2023-03-23T03:37:03;3.80;;;2.55;;
11486;SDS011;10510;47.942;9.442;2023-03-23T03:39:06;4.57;;;2.38;;
11486;SDS011;10510;47.942;9.442;2023-03-23T03:41:09;4.40;;;1.88;;
11486;SDS011;10510;47.942;9.442;2023-03-23T03:43:09;3.33;;;1.50;;
11486;SDS011;10510;47.942;9.442;2023-03-23T03:45:11;5.75;;;1.55;;
11486;SDS011;10510;47.942;9.442;2023-03-23T03:47:13;3.63;;;1.77;;
11486;SDS011;10510;47.942;9.442;2023-03-23T03:49:13;4.28;;;1.90;;
11486;SDS011;10510;47.942;9.442;2023-03-23T03:51:13;2.88;;;1.70;;
11486;SDS011;10510;47.942;9.442;2023-03-23T03:53:14;3.80;;;2.05;;
11486;SDS011;10510;47.942;9.442;2023-03-23T03:55:14;4.70;;;2.03;;
11486;SDS011;10510;47.942;9.442;2023-03-23T03:57:14;4.15;;;2.00;;
11486;SDS011;10510;47.942;9.442;2023-03-23T03:59:17;3.30;;;1.67;;
11486;SDS011;10510;47.942;9.442;2023-03-23T04:01:18;3.53;;;1.85;;
11486;SDS011;10510;47.942;9.442;2023-03-23T04:03:24;3.00;;;1.50;;
11486;SDS011;10510;47.942;9.442;2023-03-23T04:05:25;6.35;;;1.88;;
11486;SDS011;10510;47.942;9.442;2023-03-23T04:07:28;2.58;;;1.67;;
11486;SDS011;10510;47.942;9.442;2023-03-23T04:09:29;5.15;;;1.80;;
11486;SDS011;10510;47.942;9.442;2023-03-23T04:11:31;4.28;;;1.80;;
11486;SDS011;10510;47.942;9.442;2023-03-23T04:13:32;2.67;;;1.48;;
11486;SDS011;10510;47.942;9.442;2023-03-23T04:15:33;2.60;;;1.45;;
11486;SDS011;10510;47.942;9.442;2023-03-23T04:17:34;3.97;;;1.45;;
11486;SDS011;10510;47.942;9.442;2023-03-23T04:19:36;2.60;;;1.55;;
11486;SDS011;10510;47.942;9.442;2023-03-23T04:21:37;7.93;;;2.42;;
11486;SDS011;10510;47.942;9.442;2023-03-23T04:23:38;6.43;;;3.17;;
11486;SDS011;10510;47.942;9.442;2023-03-23T04:25:39;10.88;;;4.82;;
11486;SDS011;10510;47.942;9.442;2023-03-23T04:27:41;9.75;;;4.20;;
11486;SDS011;10510;47.942;9.442;2023-03-23T04:29:45;5.45;;;2.60;;
11486;SDS011;10510;47.942;9.442;2023-03-23T04:31:48;3.92;;;2.42;;
11486;SDS011;10510;47.942;9.442;2023-03-23T04:33:51;23.70;;;9.88;;
11486;SDS011;10510;47.942;9.442;2023-03-23T04:35:55;7.35;;;2.92;;
11486;SDS011;10510;47.942;9.442;2023-03-23T04:38:00;11.57;;;4.55;;
11486;SDS011;10510;47.942;9.442;2023-03-23T04:40:00;8.30;;;4.00;;
11486;SDS011;10510;47.942;9.442;2023-03-23T04:42:01;20.00;;;8.05;;
11486;SDS011;10510;47.942;9.442;2023-03-23T04:44:01;12.57;;;4.60;;
11486;SDS011;10510;47.942;9.442;2023-03-23T04:46:02;9.25;;;3.85;;
11486;SDS011;10510;47.942;9.442;2023-03-23T04:48:03;3.90;;;2.60;;
11486;SDS011;10510;47.942;9.442;2023-03-23T04:50:04;4.47;;;2.00;;
11486;SDS011;10510;47.942;9.442;2023-03-23T04:52:14;4.75;;;2.40;;
11486;SDS011;10510;47.942;9.442;2023-03-23T04:54:14;3.40;;;1.90;;
11486;SDS011;10510;47.942;9.442;2023-03-23T04:56:15;8.25;;;4.10;;
11486;SDS011;10510;47.942;9.442;2023-03-23T04:58:15;5.93;;;2.92;;
11486;SDS011;10510;47.942;9.442;2023-03-23T05:00:16;4.03;;;2.25;;
11486;SDS011;10510;47.942;9.442;2023-03-23T05:02:17;4.47;;;2.40;;
11486;SDS011;10510;47.942;9.442;2023-03-23T05:04:18;4.57;;;2.65;;
11486;SDS011;10510;47.942;9.442;2023-03-23T05:06:18;7.38;;;2.60;;
11486;SDS011;10510;47.942;9.442;2023-03-23T05:08:19;4.82;;;2.60;;
11486;SDS011;10510;47.942;9.442;2023-03-23T05:10:20;5.95;;;2.83;;
11486;SDS011;10510;47.942;9.442;2023-03-23T05:12:21;6.13;;;2.80;;
11486;SDS011;10510;47.942;9.442;2023-03-23T05:14:21;6.30;;;2.97;;
11486;SDS011;10510;47.942;9.442;2023-03-23T05:16:21;4.97;;;2.83;;
11486;SDS011;10510;47.942;9.442;2023-03-23T05:18:22;8.65;;;4.82;;
11486;SDS011;10510;47.942;9.442;2023-03-23T05:20:22;5.22;;;2.47;;
11486;SDS011;10510;47.942;9.442;2023-03-23T05:22:23;6.75;;;2.63;;
11486;SDS011;10510;47.942;9.442;2023-03-23T05:24:23;5.15;;;3.15;;
11486;SDS011;10510;47.942;9.442;2023-03-23T05:26:24;5.20;;;2.83;;
11486;SDS011;10510;47.942;9.442;2023-03-23T05:28:25;4.32;;;2.72;;
11486;SDS011;10510;47.942;9.442;2023-03-23T05:30:25;4.50;;;2.63;;
11486;SDS011;10510;47.942;9.442;2023-03-23T05:32:26;5.10;;;3.13;;
11486;SDS011;10510;47.942;9.442;2023-03-23T05:34:29;6.50;;;2.80;;
11486;SDS011;10510;47.942;9.442;2023-03-23T05:36:32;8.48;;;3.00;;
11486;SDS011;10510;47.942;9.442;2023-03-23T05:38:32;5.95;;;2.67;;
11486;SDS011;10510;47.942;9.442;2023-03-23T05:40:32;5.72;;;2.47;;
11486;SDS011;10510;47.942;9.442;2023-03-23T05:42:33;6.03;;;2.40;;
11486;SDS011;10510;47.942;9.442;2023-03-23T05:44:34;3.58;;;2.03;;
11486;SDS011;10510;47.942;9.442;2023-03-23T05:46:34;6.88;;;2.33;;
11486;SDS011;10510;47.942;9.442;2023-03-23T05:48:34;7.30;;;2.40;;
11486;SDS011;10510;47.942;9.442;2023-03-23T05:50:36;8.00;;;2.60;;
11486;SDS011;10510;47.942;9.442;2023-03-23T05:52:36;5.05;;;2.83;;
11486;SDS011;10510;47.942;9.442;2023-03-23T05:54:36;8.35;;;2.53;;
11486;SDS011;10510;47.942;9.442;2023-03-23T05:56:37;6.93;;;2.58;;
11486;SDS011;10510;47.942;9.442;2023-03-23T05:58:37;2.80;;;1.70;;
11486;SDS011;10510;47.942;9.442;2023-03-23T06:00:38;10.07;;;3.08;;
11486;SDS011;10510;47.942;9.442;2023-03-23T06:02:39;5.60;;;2.92;;
11486;SDS011;10510;47.942;9.442;2023-03-23T06:04:43;5.85;;;3.15;;
11486;SDS011;10510;47.942;9.442;2023-03-23T06:06:44;11.52;;;6.32;;
11486;SDS011;10510;47.942;9.442;2023-03-23T06:08:45;7.72;;;3.35;;
11486;SDS011;10510;47.942;9.442;2023-03-23T06:10:46;9.85;;;4.60;;
11486;SDS011;10510;47.942;9.442;2023-03-23T06:12:46;11.95;;;3.90;;
11486;SDS011;10510;47.942;9.442;2023-03-23T06:14:47;7.78;;;3.22;;
11486;SDS011;10510;47.942;9.442;2023-03-23T06:16:47;5.90;;;3.40;;
11486;SDS011;10510;47.942;9.442;2023-03-23T06:18:48;7.05;;;3.13;;
11486;SDS011;10510;47.942;9.442;2023-03-23T06:20:49;7.72;;;3.35;;
11486;SDS011;10510;47.942;9.442;2023-03-23T06:22:50;29.63;;;7.40;;
11486;SDS011;10510;47.942;9.442;2023-03-23T06:24:52;3.08;;;2.05;;
11486;SDS011;10510;47.942;9.442;2023-03-23T06:26:52;5.47;;;2.83;;
11486;SDS011;10510;47.942;9.442;2023-03-23T06:28:52;11.52;;;4.13;;
11486;SDS011;10510;47.942;9.442;2023-03-23T06:30:52;4.70;;;2.45;;
11486;SDS011;10510;47.942;9.442;2023-03-23T06:32:53;8.25;;;2.45;;
11486;SDS011;10510;47.942;9.442;2023-03-23T06:34:53;4.03;;;2.28;;
11486;SDS011;10510;47.942;9.442;2023-03-23T06:36:54;4.03;;;2.28;;
11486;SDS011;10510;47.942;9.442;2023-03-23T06:38:54;5.07;;;2.22;;
11486;SDS011;10510;47.942;9.442;2023-03-23T06:40:55;3.13;;;2.00;;
11486;SDS011;10510;47.942;9.442;2023-03-23T06:42:57;2.63;;;1.85;;
11486;SDS011;10510;47.942;9.442;2023-03-23T06:44:59;4.35;;;2.20;;
11486;SDS011;10510;47.942;9.442;2023-03-23T06:47:00;6.45;;;1.73;;
11486;SDS011;10510;47.942;9.442;2023-03-23T06:49:02;3.08;;;1.80;;
11486;SDS011;10510;47.942;9.442;2023-03-23T06:51:03;3.85;;;2.03;;
11486;SDS011;10510;47.942;9.442;2023-03-23T06:53:04;5.32;;;2.08;;
11486;SDS011;10510;47.942;9.442;2023-03-23T06:55:04;2.80;;;1.73;;
11486;SDS011;10510;47.942;9.442;2023-03-23T06:57:05;4.85;;;1.98;;
11486;SDS011;10510;47.942;9.442;2023-03-23T06:59:06;3.17;;;1.50;;
11486;SDS011;10510;47.942;9.442;2023-03-23T07:01:07;3.15;;;1.73;;
11486;SDS011;10510;47.942;9.442;2023-03-23T07:03:09;2.55;;;1.35;;
11486;SDS011;10510;47.942;9.442;2023-03-23T07:05:10;6.43;;;1.98;;
11486;SDS011;10510;47.942;9.442;2023-03-23T07:07:11;3.25;;;1.63;;
11486;SDS011;10510;47.942;9.442;2023-03-23T07:09:14;3.42;;;1.83;;
11486;SDS011;10510;47.942;9.442;2023-03-23T07:11:14;4.43;;;1.80;;
11486;SDS011;10510;47.942;9.442;2023-03-23T07:13:14;1.77;;;1.20;;
11486;SDS011;10510;47.942;9.442;2023-03-23T07:15:15;9.77;;;3.33;;
11486;SDS011;10510;47.942;9.442;2023-03-23T07:17:15;3.47;;;1.80;;
11486;SDS011;10510;47.942;9.442;2023-03-23T07:19:15;4.10;;;1.85;;
11486;SDS011;10510;47.942;9.442;2023-03-23T07:21:16;5.30;;;1.92;;
11486;SDS011;10510;47.942;9.442;2023-03-23T07:23:17;2.83;;;1.55;;
11486;SDS011;10510;47.942;9.442;2023-03-23T07:25:18;4.50;;;1.40;;
11486;SDS011;10510;47.942;9.442;2023-03-23T07:27:18;3.05;;;1.70;;
11486;SDS011;10510;47.942;9.442;2023-03-23T07:29:19;2.38;;;1.35;;
11486;SDS011;10510;47.942;9.442;2023-03-23T07:31:19;3.42;;;1.30;;
11486;SDS011;10510;47.942;9.442;2023-03-23T07:33:20;2.60;;;1.42;;
11486;SDS011;10510;47.942;9.442;2023-03-23T07:35:21;4.03;;;1.40;;
11486;SDS011;10510;47.942;9.442;2023-03-23T07:37:23;2.50;;;1.50;;
11486;SDS011;10510;47.942;9.442;2023-03-23T07:39:25;2.17;;;1.48;;
11486;SDS011;10510;47.942;9.442;2023-03-23T07:41:26;4.40;;;1.67;;
11486;SDS011;10510;47.942;9.442;2023-03-23T07:43:26;5.35;;;1.60;;
11486;SDS011;10510;47.942;9.442;2023-03-23T07:45:27;2.28;;;1.17;;
11486;SDS011;10510;47.942;9.442;2023-03-23T07:47:27;3.90;;;1.55;;
11486;SDS011;10510;47.942;9.442;2023-03-23T07:49:28;3.00;;;1.70;;
11486;SDS011;10510;47.942;9.442;2023-03-23T07:51:31;2.45;;;1.35;;
11486;SDS011;10510;47.942;9.442;2023-03-23T07:53:32;6.00;;;1.70;;
11486;SDS011;10510;47.942;9.442;2023-03-23T07:55:33;2.78;;;1.50;;
11486;SDS011;10510;47.942;9.442;2023-03-23T07:57:33;3.65;;;1.50;;
11486;SDS011;10510;47.942;9.442;2023-03-23T07:59:34;1.52;;;1.17;;
11486;SDS011;10510;47.942;9.442;2023-03-23T08:01:35;3.00;;;1.30;;
11486;SDS011;10510;47.942;9.442;2023-03-23T08:03:35;2.38;;;1.13;;
11486;SDS011;10510;47.942;9.442;2023-03-23T08:05:35;2.13;;;1.17;;
11486;SDS011;10510;47.942;9.442;2023-03-23T08:07:35;2.72;;;1.38;;
11486;SDS011;10510;47.942;9.442;2023-03-23T08:09:36;7.70;;;1.40;;
11486;SDS011;10510;47.942;9.442;2023-03-23T08:11:37;3.50;;;1.10;;
11486;SDS011;10510;47.942;9.442;2023-03-23T08:13:38;1.88;;;1.50;;
11486;SDS011;10510;47.942;9.442;2023-03-23T08:15:38;2.60;;;1.35;;
11486;SDS011;10510;47.942;9.442;2023-03-23T08:17:39;6.25;;;1.40;;
11486;SDS011;10510;47.942;9.442;2023-03-23T08:19:40;1.50;;;1.17;;
11486;SDS011;10510;47.942;9.442;2023-03-23T08:21:40;2.35;;;1.20;;
11486;SDS011;10510;47.942;9.442;2023-03-23T08:23:40;2.60;;;1.30;;
11486;SDS011;10510;47.942;9.442;2023-03-23T08:25:41;5.00;;;2.63;;
11486;SDS011;10510;47.942;9.442;2023-03-23T08:27:42;3.22;;;1.40;;
11486;SDS011;10510;47.942;9.442;2023-03-23T08:29:46;2.10;;;1.20;;
11486;SDS011;10510;47.942;9.442;2023-03-23T08:31:47;1.40;;;1.30;;
11486;SDS011;10510;47.942;9.442;2023-03-23T08:33:48;4.68;;;1.63;;
11486;SDS011;10510;47.942;9.442;2023-03-23T08:35:55;3.78;;;1.50;;
11486;SDS011;10510;47.942;9.442;2023-03-23T08:37:56;8.25;;;1.63;;
11486;SDS011;10510;47.942;9.442;2023-03-23T08:39:57;2.03;;;1.25;;
11486;SDS011;10510;47.942;9.442;2023-03-23T08:41:57;1.45;;;1.08;;
11486;SDS011;10510;47.942;9.442;2023-03-23T08:43:57;2.47;;;1.40;;
11486;SDS011;10510;47.942;9.442;2023-03-23T08:45:58;2.05;;;1.20;;
11486;SDS011;10510;47.942;9.442;2023-03-23T08:47:58;3.92;;;1.20;;
11486;SDS011;10510;47.942;9.442;2023-03-23T08:50:00;1.88;;;1.23;;
11486;SDS011;10510;47.942;9.442;2023-03-23T08:52:00;3.00;;;1.33;;
11486;SDS011;10510;47.942;9.442;2023-03-23T08:54:01;2.85;;;1.70;;
11486;SDS011;10510;47.942;9.442;2023-03-23T08:56:09;5.50;;;1.60;;
11486;SDS011;10510;47.942;9.442;2023-03-23T08:58:10;1.50;;;1.15;;
11486;SDS011;10510;47.942;9.442;2023-03-23T09:00:12;3.65;;;1.35;;
11486;SDS011;10510;47.942;9.442;2023-03-23T09:02:17;3.92;;;1.38;;
11486;SDS011;10510;47.942;9.442;2023-03-23T09:04:17;2.58;;;1.02;;
11486;SDS011;10510;47.942;9.442;2023-03-23T09:06:17;1.85;;;1.00;;
11486;SDS011;10510;47.942;9.442;2023-03-23T09:08:17;4.38;;;1.38;;
11486;SDS011;10510;47.942;9.442;2023-03-23T09:10:18;1.98;;;1.13;;
11486;SDS011;10510;47.942;9.442;2023-03-23T09:12:19;18.88;;;1.92;;
11486;SDS011;10510;47.942;9.442;2023-03-23T09:14:20;3.97;;;1.30;;
11486;SDS011;10510;47.942;9.442;2023-03-23T09:16:20;2.20;;;1.20;;
11486;SDS011;10510;47.942;9.442;2023-03-23T09:18:20;4.53;;;1.35;;
11486;SDS011;10510;47.942;9.442;2023-03-23T09:20:22;3.13;;;1.33;;
11486;SDS011;10510;47.942;9.442;2023-03-23T09:22:24;3.30;;;1.05;;
11486;SDS011;10510;47.942;9.442;2023-03-23T09:24:24;2.33;;;1.20;;
11486;SDS011;10510;47.942;9.442;2023-03-23T09:26:25;3.90;;;1.65;;
11486;SDS011;10510;47.942;9.442;2023-03-23T09:28:26;2.47;;;1.38;;
11486;SDS011;10510;47.942;9.442;2023-03-23T09:30:29;2.63;;;1.10;;
11486;SDS011;10510;47.942;9.442;2023-03-23T09:32:35;4.22;;;1.40;;
11486;SDS011;10510;47.942;9.442;2023-03-23T09:34:36;1.67;;;1.08;;
11486;SDS011;10510;47.942;9.442;2023-03-23T09:36:39;5.38;;;1.55;;
11486;SDS011;10510;47.942;9.442;2023-03-23T09:38:40;1.13;;;1.02;;
11486;SDS011;10510;47.942;9.442;2023-03-23T09:50:34;4.72;;;1.63;;
11486;SDS011;10510;47.942;9.442;2023-03-23T09:52:54;1.98;;;1.30;;
11486;SDS011;10510;47.942;9.442;2023-03-23T09:54:55;7.20;;;1.27;;
11486;SDS011;10510;47.942;9.442;2023-03-23T09:56:55;1.90;;;0.95;;
11486;SDS011;10510;47.942;9.442;2023-03-23T09:59:00;4.13;;;1.52;;
11486;SDS011;10510;47.942;9.442;2023-03-23T10:01:06;4.20;;;1.63;;
11486;SDS011;10510;47.942;9.442;2023-03-23T10:03:14;2.45;;;1.63;;
11486;SDS011;10510;47.942;9.442;2023-03-23T10:05:30;1.88;;;1.27;;
11486;SDS011;10510;47.942;9.442;2023-03-23T10:07:33;2.03;;;1.30;;
11486;SDS011;10510;47.942;9.442;2023-03-23T10:09:33;2.95;;;1.73;;
11486;SDS011;10510;47.942;9.442;2023-03-23T10:11:50;2.60;;;1.42;;
11486;SDS011;10510;47.942;9.442;2023-03-23T10:14:06;1.95;;;1.17;;
11486;SDS011;10510;47.942;9.442;2023-03-23T10:16:17;8.95;;;3.72;;
11486;SDS011;10510;47.942;9.442;2023-03-23T10:18:27;3.45;;;1.40;;
11486;SDS011;10510;47.942;9.442;2023-03-23T10:25:19;1.73;;;1.30;;
11486;SDS011;10510;47.942;9.442;2023-03-23T10:27:33;3.88;;;1.52;;
11486;SDS011;10510;47.942;9.442;2023-03-23T10:29:45;2.50;;;1.20;;
11486;SDS011;10510;47.942;9.442;2023-03-23T10:33:55;2.30;;;1.33;;
11486;SDS011;10510;47.942;9.442;2023-03-23T10:36:07;2.47;;;1.42;;
11486;SDS011;10510;47.942;9.442;2023-03-23T10:38:19;1.48;;;1.10;;
11486;SDS011;10510;47.942;9.442;2023-03-23T10:40:27;2.88;;;1.10;;
11486;SDS011;10510;47.942;9.442;2023-03-23T10:42:30;6.30;;;1.83;;
11486;SDS011;10510;47.942;9.442;2023-03-23T10:44:33;2.00;;;1.30;;
11486;SDS011;10510;47.942;9.442;2023-03-23T10:46:37;2.50;;;1.20;;
11486;SDS011;10510;47.942;9.442;2023-03-23T10:48:48;2.08;;;1.30;;
11486;SDS011;10510;47.942;9.442;2023-03-23T10:50:54;4.80;;;1.30;;
11486;SDS011;10510;47.942;9.442;2023-03-23T10:52:57;3.33;;;1.63;;
11486;SDS011;10510;47.942;9.442;2023-03-23T10:55:16;2.80;;;1.40;;
11486;SDS011;10510;47.942;9.442;2023-03-23T10:57:22;2.72;;;1.30;;
11486;SDS011;10510;47.942;9.442;2023-03-23T10:59:29;3.03;;;1.42;;
11486;SDS011;10510;47.942;9.442;2023-03-23T11:01:33;2.70;;;1.40;;
11486;SDS011;10510;47.942;9.442;2023-03-23T11:07:52;2.58;;;1.50;;
11486;SDS011;10510;47.942;9.442;2023-03-23T11:09:55;7.00;;;1.58;;
11486;SDS011;10510;47.942;9.442;2023-03-23T11:11:58;2.60;;;1.40;;
11486;SDS011;10510;47.942;9.442;2023-03-23T11:16:00;4.82;;;1.50;;
11486;SDS011;10510;47.942;9.442;2023-03-23T11:18:05;3.75;;;1.33;;
11486;SDS011;10510;47.942;9.442;2023-03-23T11:20:11;4.93;;;1.40;;
11486;SDS011;10510;47.942;9.442;2023-03-23T11:22:14;2.28;;;1.33;;
11486;SDS011;10510;47.942;9.442;2023-03-23T11:24:25;2.85;;;1.90;;
11486;SDS011;10510;47.942;9.442;2023-03-23T11:28:32;2.63;;;1.30;;
11486;SDS011;10510;47.942;9.442;2023-03-23T11:30:37;2.17;;;1.58;;
11486;SDS011;10510;47.942;9.442;2023-03-23T11:32:38;4.10;;;1.60;;
11486;SDS011;10510;47.942;9.442;2023-03-23T11:34:45;4.68;;;2.05;;
11486;SDS011;10510;47.942;9.442;2023-03-23T11:36:55;4.70;;;1.83;;
11486;SDS011;10510;47.942;9.442;2023-03-23T11:39:00;3.35;;;1.35;;
11486;SDS011;10510;47.942;9.442;2023-03-23T11:41:09;2.95;;;1.77;;
11486;SDS011;10510;47.942;9.442;2023-03-23T11:43:20;1.92;;;1.50;;
11486;SDS011;10510;47.942;9.442;2023-03-23T11:47:37;3.35;;;1.58;;
11486;SDS011;10510;47.942;9.442;2023-03-23T11:49:55;3.35;;;1.70;;
11486;SDS011;10510;47.942;9.442;2023-03-23T11:52:14;3.25;;;1.63;;
11486;SDS011;10510;47.942;9.442;2023-03-23T11:54:28;6.65;;;1.92;;
11486;SDS011;10510;47.942;9.442;2023-03-23T11:56:39;3.33;;;1.45;;
11486;SDS011;10510;47.942;9.442;2023-03-23T11:58:42;3.65;;;1.50;;
11486;SDS011;10510;47.942;9.442;2023-03-23T12:00:56;2.55;;;1.63;;
11486;SDS011;10510;47.942;9.442;2023-03-23T12:05:45;2.95;;;1.58;;
11486;SDS011;10510;47.942;9.442;2023-03-23T12:17:19;4.15;;;1.40;;
11486;SDS011;10510;47.942;9.442;2023-03-23T12:19:39;5.65;;;2.28;;
11486;SDS011;10510;47.942;9.442;2023-03-23T12:26:25;3.22;;;1.70;;
11486;SDS011;10510;47.942;9.442;2023-03-23T12:31:08;3.97;;;1.50;;
11486;SDS011;10510;47.942;9.442;2023-03-23T12:35:56;4.05;;;1.40;;
11486;SDS011;10510;47.942;9.442;2023-03-23T12:43:15;2.90;;;1.48;;
11486;SDS011;10510;47.942;9.442;2023-03-23T12:47:48;3.50;;;1.88;;
11486;SDS011;10510;47.942;9.442;2023-03-23T12:50:03;2.90;;;1.58;;
11486;SDS011;10510;47.942;9.442;2023-03-23T12:52:22;2.00;;;1.08;;
11486;SDS011;10510;47.942;9.442;2023-03-23T12:57:23;1.88;;;1.38;;
11486;SDS011;10510;47.942;9.442;2023-03-23T12:59:34;2.55;;;1.40;;
11486;SDS011;10510;47.942;9.442;2023-03-23T13:01:38;2.70;;;1.77;;
11486;SDS011;10510;47.942;9.442;2023-03-23T13:05:57;2.20;;;1.30;;
11486;SDS011;10510;47.942;9.442;2023-03-23T13:08:14;2.22;;;1.50;;
11486;SDS011;10510;47.942;9.442;2023-03-23T13:12:21;4.03;;;1.75;;
11486;SDS011;10510;47.942;9.442;2023-03-23T13:19:23;2.88;;;1.67;;
11486;SDS011;10510;47.942;9.442;2023-03-23T13:21:31;4.88;;;1.65;;
11486;SDS011;10510;47.942;9.442;2023-03-23T13:23:36;2.65;;;1.50;;
11486;SDS011;10510;47.942;9.442;2023-03-23T13:25:45;2.90;;;1.70;;
11486;SDS011;10510;47.942;9.442;2023-03-23T13:28:00;5.05;;;1.52;;
11486;SDS011;10510;47.942;9.442;2023-03-23T13:30:01;3.35;;;1.60;;
11486;SDS011;10510;47.942;9.442;2023-03-23T13:32:05;4.40;;;1.75;;
11486;SDS011;10510;47.942;9.442;2023-03-23T13:36:30;3.08;;;1.80;;
11486;SDS011;10510;47.942;9.442;2023-03-23T13:38:33;3.20;;;1.48;;
11486;SDS011;10510;47.942;9.442;2023-03-23T13:40:34;1.88;;;1.30;;
11486;SDS011;10510;47.942;9.442;2023-03-23T13:42:36;3.13;;;1.58;;
11486;SDS011;10510;47.942;9.442;2023-03-23T13:46:54;4.87;;;1.80;;
11486;SDS011;10510;47.942;9.442;2023-03-23T13:53:43;2.70;;;1.90;;
11486;SDS011;10510;47.942;9.442;2023-03-23T13:55:48;3.92;;;2.03;;
11486;SDS011;10510;47.942;9.442;2023-03-23T14:00:11;3.80;;;1.80;;
11486;SDS011;10510;47.942;9.442;2023-03-23T14:02:37;2.17;;;1.60;;